Time;durP1;ratioP1;P1;durP2;ratioP2;P2;SDS_P1;SDS_P2;PMS_P1;PMS_P2;Temp;Humidity;BMP_temperature;BMP_pressure;BME280_temperature;BME280_humidity;BME280_pressure;Samples;Min_cycle;Max_cycle;Signal;HPM_P1;HPM_P2
2021/08/12 00:01:18;;;;;;;0.82;0.82;;;11.70;99.90;;;;;;4991533;28;20206;-79
2021/08/12 00:03:45;;;;;;;1.33;1.20;;;11.70;99.90;;;;;;4990347;28;20228;-79
2021/08/12 00:06:11;;;;;;;0.63;0.63;;;11.70;99.90;;;;;;4993103;28;20583;-79
2021/08/12 00:08:37;;;;;;;0.60;0.60;;;11.70;99.90;;;;;;4991447;28;20232;-79
2021/08/12 00:11:03;;;;;;;0.60;0.60;;;11.70;99.90;;;;;;4992772;28;20664;-80
2021/08/12 00:13:29;;;;;;;0.60;0.60;;;11.70;99.90;;;;;;4991446;28;20225;-79
2021/08/12 00:15:55;;;;;;;1.15;1.08;;;11.70;99.90;;;;;;4991566;28;20733;-80
2021/08/12 00:18:20;;;;;;;0.95;0.80;;;11.70;99.90;;;;;;4991306;28;20210;-78
2021/08/12 00:20:46;;;;;;;0.70;0.70;;;11.60;99.90;;;;;;4992654;28;20207;-79
2021/08/12 00:23:12;;;;;;;0.60;0.60;;;11.60;99.90;;;;;;4991691;28;20347;-79
2021/08/12 00:25:38;;;;;;;8.05;1.30;;;11.50;99.90;;;;;;4989986;28;20223;-79
2021/08/12 00:28:04;;;;;;;0.40;0.40;;;11.50;99.90;;;;;;4992857;28;20196;-80
2021/08/12 00:30:30;;;;;;;0.93;0.70;;;11.40;99.90;;;;;;5007578;28;20218;-79
2021/08/12 00:32:55;;;;;;;0.80;0.80;;;11.40;99.90;;;;;;4992815;28;20211;-80
2021/08/12 00:35:21;;;;;;;0.60;0.60;;;11.40;99.90;;;;;;4991275;28;20663;-79
2021/08/12 00:37:47;;;;;;;0.60;0.60;;;11.50;99.90;;;;;;4992506;28;20204;-80
2021/08/12 00:40:16;;;;;;;0.60;0.60;;;11.50;99.90;;;;;;5009399;28;20651;-79
2021/08/12 00:42:42;;;;;;;0.95;0.93;;;11.60;99.90;;;;;;4994442;28;20218;-79
2021/08/12 00:45:08;;;;;;;0.63;0.63;;;11.70;99.90;;;;;;4994721;28;20203;-79
2021/08/12 00:47:34;;;;;;;0.65;0.65;;;11.80;99.90;;;;;;4995850;28;20230;-80
2021/08/12 00:49:59;;;;;;;0.80;0.68;;;11.70;99.90;;;;;;4995766;28;20210;-79
2021/08/12 00:52:25;;;;;;;0.50;0.50;;;11.60;99.90;;;;;;4993423;28;20575;-79
2021/08/12 00:54:51;;;;;;;0.70;0.70;;;11.40;99.90;;;;;;4996269;28;20230;-79
2021/08/12 00:57:19;;;;;;;0.98;0.98;;;11.30;99.90;;;;;;4995230;28;20229;-79
2021/08/12 00:59:45;;;;;;;0.50;0.50;;;11.30;99.90;;;;;;4994555;28;20207;-79
2021/08/12 01:02:11;;;;;;;1.05;0.70;;;11.20;99.90;;;;;;4995890;28;20214;-72
2021/08/12 01:04:39;;;;;;;0.60;0.60;;;11.20;99.90;;;;;;5009398;28;20246;-72
2021/08/12 01:07:33;;;;;;;0.80;0.80;;;11.10;99.90;;;;;;4994217;28;20215;-72
2021/08/12 01:10:07;;;;;;;0.60;0.60;;;11.00;99.90;;;;;;5009595;28;20234;-72
2021/08/12 01:12:46;;;;;;;0.95;0.95;;;11.00;99.90;;;;;;4993099;28;20203;-71
2021/08/12 01:15:20;;;;;;;0.57;0.57;;;11.00;99.90;;;;;;4994113;28;20207;-72
2021/08/12 01:17:53;;;;;;;0.60;0.60;;;10.90;99.90;;;;;;4994134;28;20207;-71
2021/08/12 01:20:36;;;;;;;0.63;0.63;;;10.90;99.90;;;;;;4994000;28;20290;-72
2021/08/12 01:23:05;;;;;;;1.58;1.40;;;10.90;99.90;;;;;;4993881;28;20686;-71
2021/08/12 01:25:33;;;;;;;0.60;0.60;;;10.90;99.90;;;;;;4995317;28;20218;-72
2021/08/12 01:28:06;;;;;;;0.85;0.85;;;10.90;99.90;;;;;;4994907;28;20199;-72
2021/08/12 01:30:52;;;;;;;0.82;0.82;;;10.80;99.90;;;;;;4994042;28;20249;-71
2021/08/12 01:33:53;;;;;;;4.10;2.35;;;10.80;99.90;;;;;;4993838;28;20734;-71
2021/08/12 01:36:20;;;;;;;0.70;0.70;;;10.80;99.90;;;;;;4985906;28;20214;-72
2021/08/12 01:38:49;;;;;;;0.88;0.88;;;10.80;99.90;;;;;;4994908;28;20228;-72
2021/08/12 01:41:15;;;;;;;0.70;0.70;;;10.80;99.90;;;;;;4994779;28;20674;-71
2021/08/12 01:43:41;;;;;;;0.70;0.70;;;10.80;99.90;;;;;;4996005;28;20203;-72
2021/08/12 01:46:08;;;;;;;1.33;1.02;;;10.80;99.90;;;;;;4992802;28;20214;-72
2021/08/12 01:48:35;;;;;;;0.50;0.50;;;10.70;99.90;;;;;;4993431;28;20203;-75
2021/08/12 01:51:02;;;;;;;0.70;0.70;;;10.70;99.90;;;;;;4993011;28;20221;-72
2021/08/12 01:53:28;;;;;;;0.50;0.50;;;10.70;99.90;;;;;;4994519;28;20203;-71
2021/08/12 01:55:55;;;;;;;0.50;0.50;;;10.70;99.90;;;;;;4994672;28;20208;-72
2021/08/12 01:58:24;;;;;;;0.60;0.60;;;10.70;99.90;;;;;;4994415;28;20203;-73
2021/08/12 02:00:52;;;;;;;1.23;1.10;;;10.70;99.90;;;;;;4992316;28;20552;-71
2021/08/12 02:03:19;;;;;;;0.70;0.70;;;10.70;99.90;;;;;;4993831;28;20219;-73
2021/08/12 02:05:50;;;;;;;0.60;0.60;;;10.70;99.90;;;;;;4993164;28;20226;-71
2021/08/12 02:08:22;;;;;;;0.60;0.60;;;10.70;99.90;;;;;;5009279;28;20564;-72
2021/08/12 02:10:50;;;;;;;0.75;0.75;;;10.70;99.90;;;;;;4993009;28;20208;-72
2021/08/12 02:13:16;;;;;;;0.60;0.60;;;10.70;99.90;;;;;;4994366;28;20196;-72
2021/08/12 02:15:42;;;;;;;0.68;0.68;;;10.70;99.90;;;;;;4994414;28;20207;-72
2021/08/12 02:18:07;;;;;;;0.70;0.70;;;10.70;99.90;;;;;;4993439;28;20261;-72
2021/08/12 02:20:34;;;;;;;0.70;0.70;;;10.70;99.90;;;;;;4992848;28;20517;-72
2021/08/12 02:23:14;;;;;;;0.60;0.60;;;10.70;99.90;;;;;;4989232;28;20208;-72
2021/08/12 02:25:55;;;;;;;1.55;1.17;;;10.60;99.90;;;;;;5005502;28;20697;-72
2021/08/12 02:28:22;;;;;;;32.70;1.50;;;10.60;99.90;;;;;;4991118;28;20200;-72
2021/08/12 02:30:51;;;;;;;1.05;0.95;;;10.70;99.90;;;;;;4992658;28;20195;-72
2021/08/12 02:33:25;;;;;;;0.70;0.70;;;10.90;99.90;;;;;;4992758;28;20203;-72
2021/08/12 02:35:52;;;;;;;2.40;1.42;;;10.90;99.90;;;;;;4994141;28;20671;-72
2021/08/12 02:38:19;;;;;;;1.10;1.00;;;11.10;99.90;;;;;;4992657;28;20199;-71
2021/08/12 02:40:46;;;;;;;9.85;1.58;;;11.10;99.90;;;;;;4992548;28;20278;-72
2021/08/12 02:43:13;;;;;;;0.65;0.65;;;11.10;99.90;;;;;;4993658;28;20219;-72
2021/08/12 02:45:40;;;;;;;0.70;0.70;;;11.00;99.90;;;;;;4991186;28;20245;-72
2021/08/12 02:48:09;;;;;;;0.60;0.60;;;10.90;99.90;;;;;;4992557;28;20200;-72
2021/08/12 02:50:37;;;;;;;2.92;1.23;;;11.00;99.90;;;;;;4991333;28;20204;-72
2021/08/12 02:53:04;;;;;;;0.70;0.70;;;11.00;99.90;;;;;;4993462;28;20203;-72
2021/08/12 02:55:32;;;;;;;0.60;0.60;;;11.00;99.90;;;;;;4993316;28;20558;-72
2021/08/12 02:57:57;;;;;;;0.60;0.60;;;11.10;99.90;;;;;;4993146;28;20681;-72
2021/08/12 03:00:23;;;;;;;0.70;0.70;;;11.10;99.90;;;;;;4990634;28;20293;-72
2021/08/12 03:02:50;;;;;;;0.60;0.60;;;11.10;99.90;;;;;;4991919;28;20610;-72
2021/08/12 03:05:19;;;;;;;0.50;0.50;;;11.10;99.90;;;;;;4993565;28;20238;-72
2021/08/12 03:07:46;;;;;;;6.38;1.70;;;11.20;99.90;;;;;;4993604;28;20211;-72
2021/08/12 03:10:12;;;;;;;0.95;0.90;;;11.50;99.90;;;;;;4992455;28;20208;-72
2021/08/12 03:12:40;;;;;;;0.60;0.60;;;11.60;99.90;;;;;;4993373;28;20210;-72
2021/08/12 03:15:08;;;;;;;0.60;0.60;;;11.70;99.90;;;;;;4993542;28;20267;-72
2021/08/12 03:17:35;;;;;;;0.60;0.60;;;11.80;99.90;;;;;;4993633;28;20201;-75
2021/08/12 03:20:03;;;;;;;0.80;0.80;;;11.80;99.90;;;;;;4988401;28;20200;-72
2021/08/12 03:22:28;;;;;;;0.70;0.70;;;11.90;99.90;;;;;;4992628;28;20203;-72
2021/08/12 03:24:54;;;;;;;0.90;0.90;;;11.90;99.90;;;;;;4993016;28;20218;-72
2021/08/12 03:27:20;;;;;;;1.25;0.90;;;12.00;99.90;;;;;;4983693;28;20215;-73
2021/08/12 03:29:47;;;;;;;0.50;0.50;;;12.00;99.90;;;;;;4986216;28;20239;-72
2021/08/12 03:32:13;;;;;;;0.50;0.50;;;12.10;99.90;;;;;;4993321;28;20627;-73
2021/08/12 03:34:39;;;;;;;1.13;0.90;;;12.20;99.90;;;;;;4993497;28;20302;-72
2021/08/12 03:37:05;;;;;;;0.57;0.57;;;12.30;99.90;;;;;;5007757;28;20294;-72
2021/08/12 03:39:31;;;;;;;0.60;0.60;;;12.30;99.90;;;;;;4992933;28;20692;-72
2021/08/12 03:41:58;;;;;;;0.80;0.80;;;12.40;99.90;;;;;;4992056;28;20231;-72
2021/08/12 03:44:24;;;;;;;0.88;0.65;;;12.40;99.90;;;;;;4993112;28;20208;-73
2021/08/12 03:46:50;;;;;;;0.50;0.50;;;12.50;99.90;;;;;;4993391;28;20214;-72
2021/08/12 03:49:19;;;;;;;0.50;0.50;;;12.50;99.90;;;;;;4993096;28;20689;-72
2021/08/12 03:51:44;;;;;;;0.50;0.50;;;12.60;99.90;;;;;;4990507;28;20261;-72
2021/08/12 03:54:10;;;;;;;0.68;0.68;;;12.70;99.90;;;;;;4991977;28;20207;-72
2021/08/12 03:56:36;;;;;;;0.70;0.70;;;12.80;99.90;;;;;;5006691;28;20211;-72
2021/08/12 03:59:03;;;;;;;0.70;0.70;;;12.80;99.90;;;;;;4994226;28;20282;-72
2021/08/12 04:01:30;;;;;;;0.77;0.77;;;12.90;99.90;;;;;;4991280;28;20555;-72
2021/08/12 04:03:55;;;;;;;0.70;0.70;;;13.00;99.90;;;;;;4991461;28;20219;-72
2021/08/12 04:06:21;;;;;;;0.50;0.50;;;13.00;99.90;;;;;;4992656;28;20238;-73
2021/08/12 04:08:47;;;;;;;0.73;0.70;;;13.10;99.90;;;;;;4991842;28;20282;-72
2021/08/12 04:11:13;;;;;;;0.60;0.60;;;13.10;99.90;;;;;;4993494;28;20200;-72
2021/08/12 04:13:38;;;;;;;4.45;1.67;;;13.20;99.90;;;;;;4992611;28;20207;-72
2021/08/12 04:16:04;;;;;;;0.57;0.57;;;13.20;99.90;;;;;;4994233;28;20302;-72
2021/08/12 04:18:30;;;;;;;0.60;0.60;;;13.30;99.90;;;;;;4995209;28;20251;-72
2021/08/12 04:20:56;;;;;;;0.75;0.75;;;13.30;99.90;;;;;;4995121;28;20211;-72
2021/08/12 04:23:22;;;;;;;0.55;0.55;;;13.30;99.90;;;;;;4994690;28;20209;-73
2021/08/12 04:25:49;;;;;;;1.13;1.05;;;13.40;99.90;;;;;;4996525;28;20225;-72
2021/08/12 04:28:15;;;;;;;0.50;0.50;;;13.40;99.90;;;;;;4996393;28;20203;-72
2021/08/12 04:30:40;;;;;;;0.70;0.70;;;13.40;99.90;;;;;;4994993;28;20195;-72
2021/08/12 04:33:06;;;;;;;0.77;0.77;;;13.50;99.90;;;;;;4995179;28;20206;-73
2021/08/12 04:35:32;;;;;;;0.63;0.63;;;13.50;99.90;;;;;;4995438;28;20204;-72
2021/08/12 04:37:57;;;;;;;0.60;0.60;;;13.50;99.90;;;;;;5011750;28;20191;-72
2021/08/12 04:40:23;;;;;;;0.70;0.70;;;13.50;99.90;;;;;;4995821;28;20211;-73
2021/08/12 04:42:52;;;;;;;0.68;0.68;;;13.50;99.90;;;;;;4996144;28;20216;-72
2021/08/12 04:45:19;;;;;;;0.50;0.50;;;13.50;99.90;;;;;;4994673;28;20552;-73
2021/08/12 04:47:45;;;;;;;0.73;0.73;;;13.50;99.90;;;;;;4994716;28;20659;-71
2021/08/12 04:50:12;;;;;;;0.88;0.88;;;13.50;99.90;;;;;;4996108;28;20200;-72
2021/08/12 04:52:39;;;;;;;0.60;0.60;;;13.50;99.90;;;;;;4995993;28;20203;-72
2021/08/12 04:55:09;;;;;;;0.60;0.60;;;13.50;99.90;;;;;;4995985;28;20234;-72
2021/08/12 04:57:34;;;;;;;0.93;0.93;;;13.60;99.90;;;;;;4995846;28;20287;-72
2021/08/12 05:00:01;;;;;;;0.52;0.52;;;13.60;99.90;;;;;;4994705;28;20736;-72
2021/08/12 05:02:26;;;;;;;0.60;0.60;;;13.60;99.90;;;;;;5010345;28;20679;-74
2021/08/12 05:04:52;;;;;;;0.55;0.55;;;13.70;99.90;;;;;;4995815;28;20219;-75
2021/08/12 05:07:18;;;;;;;0.68;0.68;;;13.70;99.90;;;;;;4995937;28;20275;-74
2021/08/12 05:09:44;;;;;;;1.20;0.93;;;13.70;99.90;;;;;;4995596;28;20674;-73
2021/08/12 05:12:10;;;;;;;0.50;0.50;;;13.70;99.90;;;;;;4996677;28;20208;-72
2021/08/12 05:14:35;;;;;;;1.10;1.00;;;13.70;99.90;;;;;;4992798;28;20214;-72
2021/08/12 05:17:01;;;;;;;0.73;0.73;;;13.70;99.90;;;;;;4994316;28;20294;-73
2021/08/12 05:19:27;;;;;;;0.60;0.60;;;13.80;99.90;;;;;;4995316;28;20568;-72
2021/08/12 05:21:53;;;;;;;0.63;0.63;;;13.90;99.90;;;;;;4994324;28;20242;-72
2021/08/12 05:24:18;;;;;;;0.63;0.60;;;13.90;99.90;;;;;;4994664;28;20261;-73
2021/08/12 05:26:44;;;;;;;0.73;0.73;;;13.90;99.90;;;;;;4994213;28;20188;-72
2021/08/12 05:29:09;;;;;;;0.60;0.60;;;13.90;99.90;;;;;;4995583;28;20191;-78
2021/08/12 05:31:35;;;;;;;0.60;0.60;;;14.00;99.90;;;;;;4995266;28;20663;-72
2021/08/12 05:34:01;;;;;;;1.55;0.85;;;14.00;99.90;;;;;;4995332;28;20203;-72
2021/08/12 05:36:27;;;;;;;0.47;0.47;;;14.10;99.90;;;;;;4993792;28;20246;-72
2021/08/12 05:38:57;;;;;;;0.50;0.50;;;14.10;99.90;;;;;;4990717;28;20212;-72
2021/08/12 05:41:23;;;;;;;0.70;0.70;;;14.10;99.90;;;;;;4986931;28;20225;-72
2021/08/12 05:43:48;;;;;;;0.50;0.50;;;14.20;99.90;;;;;;4993715;28;20672;-72
2021/08/12 05:46:14;;;;;;;0.50;0.50;;;14.20;99.90;;;;;;4993832;28;20214;-72
2021/08/12 05:48:43;;;;;;;0.40;0.40;;;14.20;99.90;;;;;;4993529;28;21340;-72
2021/08/12 05:51:09;;;;;;;0.50;0.50;;;14.30;99.90;;;;;;4993523;28;20203;-73
2021/08/12 05:53:35;;;;;;;0.50;0.50;;;14.30;99.90;;;;;;4994036;28;20203;-80
2021/08/12 05:56:02;;;;;;;0.40;0.40;;;14.40;99.90;;;;;;4995334;28;20207;-73
2021/08/12 05:58:28;;;;;;;0.60;0.60;;;14.50;99.90;;;;;;4993707;28;20663;-73
2021/08/12 06:00:54;;;;;;;0.40;0.40;;;14.80;99.90;;;;;;4993267;28;20212;-72
2021/08/12 06:03:21;;;;;;;0.60;0.60;;;15.10;99.90;;;;;;4994439;28;20231;-72
2021/08/12 06:05:47;;;;;;;0.65;0.65;;;15.40;99.90;;;;;;4994697;28;20219;-73
2021/08/12 06:08:14;;;;;;;0.52;0.52;;;15.70;99.90;;;;;;5009587;28;20694;-72
2021/08/12 06:10:40;;;;;;;0.70;0.70;;;16.00;99.90;;;;;;4994477;28;20294;-72
2021/08/12 06:13:06;;;;;;;0.65;0.65;;;16.10;99.90;;;;;;4995738;28;20235;-72
2021/08/12 06:15:33;;;;;;;0.40;0.40;;;16.10;99.90;;;;;;4992791;28;20286;-72
2021/08/12 06:17:58;;;;;;;0.52;0.52;;;16.30;99.90;;;;;;5009473;28;20211;-72
2021/08/12 06:20:24;;;;;;;0.80;0.80;;;16.20;99.90;;;;;;4992923;28;20198;-72
2021/08/12 06:22:52;;;;;;;0.65;0.65;;;16.20;99.90;;;;;;4993046;28;20204;-71
2021/08/12 06:25:18;;;;;;;0.47;0.47;;;16.00;99.90;;;;;;4994226;28;20258;-72
2021/08/12 06:27:43;;;;;;;0.60;0.60;;;16.10;99.90;;;;;;4995237;28;20203;-72
2021/08/12 06:30:11;;;;;;;0.77;0.77;;;16.30;99.90;;;;;;4993017;28;20212;-73
2021/08/12 06:32:37;;;;;;;0.50;0.50;;;16.50;99.90;;;;;;4993883;28;20211;-73
2021/08/12 06:35:06;;;;;;;0.47;0.47;;;16.80;99.90;;;;;;4993936;28;20576;-73
2021/08/12 06:37:41;;;;;;;0.40;0.40;;;16.90;99.90;;;;;;4991982;28;20432;-73
2021/08/12 06:40:08;;;;;;;1.65;0.77;;;17.00;99.90;;;;;;4992835;28;20563;-73
2021/08/12 06:42:33;;;;;;;0.77;0.60;;;17.10;99.90;;;;;;4993877;28;20659;-73
2021/08/12 06:45:00;;;;;;;0.40;0.40;;;17.60;99.90;;;;;;4995146;28;20270;-73
2021/08/12 06:47:25;;;;;;;0.98;0.80;;;18.20;99.90;;;;;;4994958;28;20191;-72
2021/08/12 06:49:51;;;;;;;0.40;0.40;;;18.80;99.90;;;;;;5010133;28;20196;-74
2021/08/12 06:52:17;;;;;;;4.32;0.80;;;19.10;99.90;;;;;;4993913;28;20257;-73
2021/08/12 06:54:42;;;;;;;0.40;0.40;;;19.40;99.90;;;;;;4994727;28;20287;-73
2021/08/12 06:57:08;;;;;;;2.60;0.65;;;19.40;99.90;;;;;;4993627;28;20217;-73
2021/08/12 06:59:34;;;;;;;0.63;0.63;;;19.10;99.90;;;;;;4992225;28;20208;-74
2021/08/12 07:01:59;;;;;;;0.40;0.40;;;19.10;99.90;;;;;;4993592;28;20203;-73
2021/08/12 07:04:25;;;;;;;0.20;0.20;;;19.50;99.90;;;;;;4990443;28;20230;-73
2021/08/12 07:06:51;;;;;;;27.55;0.85;;;19.90;99.90;;;;;;4993378;28;20211;-73
2021/08/12 07:09:16;;;;;;;0.30;0.30;;;20.20;99.90;;;;;;4993595;28;20667;-72
2021/08/12 07:11:42;;;;;;;0.95;0.52;;;20.10;99.90;;;;;;4991746;28;20286;-72
2021/08/12 07:14:08;;;;;;;0.82;0.75;;;19.50;99.90;;;;;;4993691;28;20340;-73
2021/08/12 07:16:33;;;;;;;2.15;0.50;;;19.20;99.90;;;;;;4993315;28;20211;-73
2021/08/12 07:18:59;;;;;;;0.40;0.40;;;19.10;99.90;;;;;;4990822;28;20250;-73
2021/08/12 07:21:25;;;;;;;0.40;0.40;;;19.50;99.90;;;;;;4992757;28;20230;-73
2021/08/12 07:23:50;;;;;;;1.42;0.47;;;20.00;99.90;;;;;;4992033;28;20211;-75
2021/08/12 07:26:17;;;;;;;0.40;0.40;;;20.40;99.90;;;;;;4991859;28;20273;-74
2021/08/12 07:28:45;;;;;;;0.30;0.30;;;20.60;99.90;;;;;;4992994;28;20262;-72
2021/08/12 07:31:13;;;;;;;0.73;0.73;;;20.30;99.90;;;;;;4991899;28;20215;-73
2021/08/12 07:33:39;;;;;;;0.30;0.30;;;20.00;99.90;;;;;;4991540;28;20227;-73
2021/08/12 07:36:06;;;;;;;6.07;0.40;;;20.00;99.90;;;;;;4992111;28;20632;-73
2021/08/12 07:38:33;;;;;;;0.47;0.47;;;20.30;99.90;;;;;;4992126;28;20289;-72
2021/08/12 07:40:59;;;;;;;0.45;0.40;;;20.80;99.90;;;;;;5024278;28;20207;-73
2021/08/12 07:43:25;;;;;;;0.55;0.55;;;20.90;99.90;;;;;;4992082;28;20269;-73
2021/08/12 07:45:52;;;;;;;0.38;0.38;;;20.80;99.90;;;;;;4993137;28;20553;-73
2021/08/12 07:48:22;;;;;;;0.20;0.20;;;21.10;99.90;;;;;;4991987;28;20207;-74
2021/08/12 07:50:49;;;;;;;0.25;0.25;;;21.80;99.90;;;;;;4995954;28;20662;-74
2021/08/12 07:53:15;;;;;;;0.75;0.50;;;21.90;99.90;;;;;;4994382;28;20203;-74
2021/08/12 07:55:41;;;;;;;0.47;0.47;;;21.70;99.90;;;;;;4995626;28;20320;-74
2021/08/12 07:58:06;;;;;;;0.40;0.40;;;21.40;99.90;;;;;;4995687;28;20306;-73
2021/08/12 08:00:32;;;;;;;0.30;0.30;;;21.20;99.90;;;;;;4996423;28;20286;-73
2021/08/12 08:02:58;;;;;;;0.88;0.75;;;21.00;99.90;;;;;;4996652;28;20226;-74
2021/08/12 08:05:25;;;;;;;1.65;0.82;;;20.90;99.90;;;;;;4995579;28;20265;-74
2021/08/12 08:07:53;;;;;;;0.20;0.20;;;20.80;99.90;;;;;;4995601;28;20670;-73
2021/08/12 08:10:22;;;;;;;0.50;0.50;;;20.50;99.90;;;;;;4996557;28;20206;-73
2021/08/12 08:12:47;;;;;;;0.65;0.50;;;20.40;99.90;;;;;;4995687;28;20208;-74
2021/08/12 08:15:16;;;;;;;7.97;1.55;;;20.30;99.90;;;;;;4995390;28;20226;-74
2021/08/12 08:17:42;;;;;;;0.52;0.52;;;20.20;99.90;;;;;;4995179;28;20575;-73
2021/08/12 08:20:09;;;;;;;0.40;0.40;;;20.10;99.90;;;;;;4996554;28;20206;-73
2021/08/12 08:22:36;;;;;;;0.38;0.38;;;20.20;99.90;;;;;;4994772;28;20215;-73
2021/08/12 08:25:06;;;;;;;1.70;1.02;;;20.40;99.90;;;;;;5000240;28;20796;-73
2021/08/12 08:27:32;;;;;;;0.30;0.30;;;20.50;99.90;;;;;;4995106;28;20630;-73
2021/08/12 08:29:58;;;;;;;1.00;0.52;;;20.30;99.90;;;;;;5011604;28;20199;-74
2021/08/12 08:32:24;;;;;;;2.33;1.35;;;20.60;99.90;;;;;;4995544;28;20254;-73
2021/08/12 08:34:50;;;;;;;0.30;0.30;;;20.90;99.90;;;;;;4995894;28;20197;-73
2021/08/12 08:37:15;;;;;;;0.35;0.35;;;21.10;99.90;;;;;;4995805;28;20230;-73
2021/08/12 08:39:41;;;;;;;0.63;0.63;;;21.20;99.90;;;;;;4996206;28;20262;-73
2021/08/12 08:42:08;;;;;;;0.47;0.47;;;21.40;99.90;;;;;;4995068;28;20218;-73
2021/08/12 08:44:35;;;;;;;5.57;0.63;;;21.50;99.90;;;;;;4994822;28;20207;-73
2021/08/12 08:47:01;;;;;;;0.45;0.45;;;21.40;99.90;;;;;;4996411;28;20212;-73
2021/08/12 08:49:29;;;;;;;0.55;0.47;;;21.60;99.90;;;;;;4994840;28;20203;-73
2021/08/12 08:51:57;;;;;;;0.93;0.80;;;21.90;99.90;;;;;;4994955;28;20250;-73
2021/08/12 08:54:24;;;;;;;0.55;0.55;;;22.00;99.90;;;;;;4995801;28;20286;-73
2021/08/12 08:56:50;;;;;;;0.90;0.50;;;21.90;99.90;;;;;;4993448;28;20203;-74
2021/08/12 08:59:16;;;;;;;0.90;0.82;;;21.80;99.90;;;;;;4995702;28;20192;-74
2021/08/12 09:01:42;;;;;;;0.52;0.30;;;21.80;99.90;;;;;;4995707;28;20196;-74
2021/08/12 09:04:08;;;;;;;1.08;0.95;;;21.50;99.90;;;;;;4995871;28;20562;-73
2021/08/12 09:06:34;;;;;;;2.67;0.98;;;21.20;99.90;;;;;;4993983;28;20227;-73
2021/08/12 09:08:59;;;;;;;0.43;0.32;;;21.10;99.90;;;;;;4993220;28;20203;-73
2021/08/12 09:11:26;;;;;;;1.17;0.63;;;21.30;99.90;;;;;;4995484;28;20294;-73
2021/08/12 09:13:53;;;;;;;1.23;0.73;;;21.20;99.90;;;;;;4994395;28;20212;-73
2021/08/12 09:16:33;;;;;;;0.55;0.55;;;21.20;99.90;;;;;;4995199;28;20709;-73
2021/08/12 09:19:11;;;;;;;0.20;0.20;;;21.40;99.90;;;;;;4994917;28;20219;-73
2021/08/12 09:21:36;;;;;;;0.60;0.50;;;21.50;99.90;;;;;;4994255;28;20222;-73
2021/08/12 09:24:02;;;;;;;0.38;0.38;;;21.80;99.90;;;;;;4995551;28;20247;-73
2021/08/12 09:26:28;;;;;;;0.30;0.30;;;21.50;99.90;;;;;;4994394;28;20234;-73
2021/08/12 09:28:54;;;;;;;0.43;0.43;;;21.40;99.90;;;;;;4993118;28;20215;-73
2021/08/12 09:31:22;;;;;;;0.73;0.55;;;21.30;99.90;;;;;;4995960;28;20204;-74
2021/08/12 09:33:53;;;;;;;0.35;0.35;;;21.20;99.90;;;;;;4995832;28;20242;-73
2021/08/12 09:36:22;;;;;;;0.73;0.50;;;21.20;99.90;;;;;;5010213;28;20257;-74
2021/08/12 09:39:14;;;;;;;0.80;0.43;;;21.60;99.90;;;;;;4994586;28;20214;-73
2021/08/12 09:41:45;;;;;;;0.50;0.50;;;21.80;99.90;;;;;;5010184;28;20222;-73
2021/08/12 09:44:32;;;;;;;0.50;0.50;;;22.00;99.90;;;;;;4994051;28;20230;-74
2021/08/12 09:46:58;;;;;;;0.60;0.40;;;22.30;99.90;;;;;;5009923;28;20294;-73
2021/08/12 09:49:25;;;;;;;0.38;0.38;;;22.30;99.90;;;;;;4995065;28;20200;-73
2021/08/12 09:51:51;;;;;;;1.25;0.43;;;22.40;99.90;;;;;;4995060;28;20294;-74
2021/08/12 09:54:33;;;;;;;0.55;0.45;;;22.70;99.90;;;;;;4993975;28;20222;-74
2021/08/12 09:57:14;;;;;;;0.57;0.57;;;22.60;99.90;;;;;;4993546;28;20207;-74
2021/08/12 09:59:53;;;;;;;0.20;0.20;;;22.90;99.90;;;;;;4995048;28;20203;-74
2021/08/12 10:02:19;;;;;;;0.90;0.43;;;23.00;99.90;;;;;;4993179;28;20206;-74
2021/08/12 10:04:45;;;;;;;1.17;0.47;;;23.30;99.90;;;;;;4993472;28;20282;-74
2021/08/12 10:07:37;;;;;;;1.17;0.82;;;23.40;99.90;;;;;;4994931;28;20204;-74
2021/08/12 10:10:10;;;;;;;0.50;0.50;;;23.20;99.90;;;;;;4993546;28;20207;-75
2021/08/12 10:12:36;;;;;;;0.45;0.40;;;23.50;99.90;;;;;;4992167;28;20204;-74
2021/08/12 10:15:02;;;;;;;0.57;0.57;;;23.70;99.90;;;;;;4993453;28;20290;-74
2021/08/12 10:17:28;;;;;;;0.45;0.30;;;23.50;99.90;;;;;;4993422;28;20212;-74
2021/08/12 10:19:54;;;;;;;0.50;0.50;;;23.50;99.90;;;;;;5009872;28;20208;-74
2021/08/12 10:22:20;;;;;;;0.32;0.32;;;23.40;99.90;;;;;;4993320;28;20219;-75
2021/08/12 10:24:47;;;;;;;1.10;0.77;;;23.80;99.90;;;;;;4995162;28;20615;-74
2021/08/12 10:27:13;;;;;;;0.63;0.40;;;24.00;99.90;;;;;;5010731;28;20205;-74
2021/08/12 10:29:43;;;;;;;0.20;0.20;;;24.20;99.90;;;;;;4993208;28;20211;-75
2021/08/12 10:32:13;;;;;;;0.40;0.40;;;24.40;99.90;;;;;;4994826;28;20739;-74
2021/08/12 10:34:38;;;;;;;0.20;0.20;;;24.70;99.90;;;;;;4992981;28;20214;-74
2021/08/12 10:37:07;;;;;;;0.30;0.30;;;24.40;99.90;;;;;;4991765;28;20570;-74
2021/08/12 10:39:32;;;;;;;0.77;0.60;;;24.80;99.90;;;;;;4992923;28;20215;-75
2021/08/12 10:41:58;;;;;;;0.60;0.30;;;24.70;99.90;;;;;;5009046;28;20294;-74
2021/08/12 10:44:24;;;;;;;0.13;0.13;;;24.30;99.90;;;;;;4993733;28;20203;-74
2021/08/12 10:46:50;;;;;;;0.30;0.30;;;24.10;99.90;;;;;;4992615;28;20207;-73
2021/08/12 10:49:30;;;;;;;0.38;0.38;;;24.10;99.90;;;;;;5009392;28;20725;-74
2021/08/12 10:52:06;;;;;;;0.38;0.38;;;24.00;99.90;;;;;;4992260;28;20578;-74
2021/08/12 10:54:34;;;;;;;0.60;0.60;;;23.70;99.90;;;;;;4992564;28;20195;-73
2021/08/12 10:57:16;;;;;;;0.40;0.30;;;23.30;99.90;;;;;;5006502;28;20638;-73
2021/08/12 10:59:42;;;;;;;0.47;0.30;;;22.90;99.90;;;;;;4992688;28;20199;-73
2021/08/12 11:02:27;;;;;;;0.65;0.65;;;22.50;99.90;;;;;;4992957;28;20210;-73
2021/08/12 11:04:54;;;;;;;0.40;0.30;;;22.50;99.90;;;;;;4976014;28;20306;-73
2021/08/12 11:07:38;;;;;;;0.82;0.55;;;22.40;99.90;;;;;;4991898;28;20210;-74
2021/08/12 11:10:12;;;;;;;0.28;0.28;;;22.10;99.90;;;;;;5007754;28;20211;-73
2021/08/12 11:13:10;;;;;;;0.40;0.25;;;21.80;99.90;;;;;;4991147;28;20560;-73
2021/08/12 11:15:38;;;;;;;0.20;0.20;;;21.90;99.90;;;;;;4955138;28;20259;-74
2021/08/12 11:18:11;;;;;;;0.50;0.50;;;21.90;99.90;;;;;;4991651;28;20202;-74
2021/08/12 11:20:42;;;;;;;0.63;0.63;;;21.80;99.90;;;;;;4991880;28;20211;-74
2021/08/12 11:23:20;;;;;;;0.22;0.22;;;21.80;99.90;;;;;;4991868;28;20204;-73
2021/08/12 11:26:03;;;;;;;0.43;0.43;;;22.00;99.90;;;;;;4993215;28;20211;-74
2021/08/12 11:28:38;;;;;;;0.50;0.43;;;22.30;99.90;;;;;;4988729;28;20204;-74
2021/08/12 11:31:31;;;;;;;0.30;0.30;;;22.90;99.90;;;;;;4988783;28;20203;-74
2021/08/12 11:34:01;;;;;;;0.75;0.50;;;23.40;99.90;;;;;;4978033;28;20215;-75
2021/08/12 11:36:34;;;;;;;0.30;0.30;;;23.50;99.90;;;;;;4991911;28;20206;-74
2021/08/12 11:39:10;;;;;;;0.45;0.40;;;23.40;99.90;;;;;;4993356;28;20223;-74
2021/08/12 11:41:37;;;;;;;12.93;0.60;;;23.20;99.90;;;;;;4991784;28;20205;-74
2021/08/12 11:44:07;;;;;;;0.30;0.30;;;23.30;99.90;;;;;;4993216;28;20215;-74
2021/08/12 11:46:37;;;;;;;1.63;0.70;;;23.50;99.90;;;;;;4990671;28;20212;-75
2021/08/12 11:49:04;;;;;;;0.25;0.25;;;23.60;99.90;;;;;;4993220;28;20226;-75
2021/08/12 11:51:34;;;;;;;2.30;0.77;;;23.70;99.90;;;;;;4991652;28;20567;-75
2021/08/12 11:54:00;;;;;;;0.28;0.28;;;23.60;99.90;;;;;;4993248;28;20207;-75
2021/08/12 11:56:28;;;;;;;0.30;0.30;;;23.40;99.90;;;;;;4990560;28;20655;-75
2021/08/12 11:58:56;;;;;;;0.80;0.70;;;23.30;99.90;;;;;;5006086;28;20210;-74
2021/08/12 12:01:24;;;;;;;1.13;0.40;;;23.20;99.90;;;;;;5006719;28;20331;-74
2021/08/12 12:04:02;;;;;;;0.40;0.40;;;23.30;99.90;;;;;;4991696;28;20230;-73
2021/08/12 12:06:41;;;;;;;0.60;0.60;;;23.10;99.90;;;;;;4988976;28;20297;-73
2021/08/12 12:09:27;;;;;;;0.57;0.52;;;23.00;99.90;;;;;;4991420;28;20247;-74
2021/08/12 12:11:55;;;;;;;0.50;0.50;;;23.60;99.90;;;;;;4991632;28;20209;-74
2021/08/12 12:14:22;;;;;;;0.30;0.30;;;24.90;99.90;;;;;;4991265;28;20204;-75
2021/08/12 12:17:21;;;;;;;0.20;0.20;;;25.20;99.90;;;;;;4992605;28;20298;-74
2021/08/12 12:20:08;;;;;;;0.73;0.73;;;25.40;99.90;;;;;;4989327;28;20338;-74
2021/08/12 12:22:34;;;;;;;0.52;0.52;;;25.60;99.90;;;;;;4990926;28;20306;-74
2021/08/12 12:25:03;;;;;;;0.52;0.52;;;25.80;99.90;;;;;;4996608;28;20230;-73
2021/08/12 12:27:29;;;;;;;0.40;0.40;;;25.70;99.90;;;;;;4991155;28;20214;-74
2021/08/12 12:30:08;;;;;;;0.47;0.47;;;25.50;99.90;;;;;;4992799;28;20204;-74
2021/08/12 12:32:34;;;;;;;0.20;0.20;;;25.40;99.90;;;;;;4991150;28;20227;-74
2021/08/12 12:35:04;;;;;;;1.00;0.77;;;25.10;99.90;;;;;;4992603;28;20204;-73
2021/08/12 12:37:31;;;;;;;0.55;0.40;;;25.00;99.90;;;;;;4996135;28;20289;-74
2021/08/12 12:39:57;;;;;;;0.50;0.50;;;25.00;99.90;;;;;;4995227;28;20682;-74
2021/08/12 12:42:24;;;;;;;2.17;0.70;;;25.00;99.90;;;;;;4994854;28;20215;-74
2021/08/12 12:45:01;;;;;;;0.38;0.38;;;24.50;99.90;;;;;;5011390;28;20195;-76
2021/08/12 12:47:28;;;;;;;0.57;0.40;;;24.10;99.90;;;;;;4996446;28;20225;-74
2021/08/12 12:50:10;;;;;;;3.20;0.90;;;24.00;99.90;;;;;;4996098;28;20310;-73
2021/08/12 12:52:54;;;;;;;0.25;0.25;;;24.00;99.90;;;;;;4996043;28;20231;-74